DESEF EDLW-EDDG
Flight info
| Callsign | DESEF |
|---|---|
| Flight time | 0h 30m |
| Altitude | |
| Route | |
| Aircraft | A210 |
Departure
| Time | 2026-05-07 18:07 |
|---|---|
| Airport | Dortmund Airport (EDLW) |
Arrival
| Time | 2026-05-07 18:38 |
|---|---|
| Airport | Münster Osnabrück Airport (EDDG) |
| Time | Latitude | Longitude | Altitude | Speed | Heading |
|---|---|---|---|---|---|
| 2026-05-07 18:01 | 51.51194 | 7.60418 | 450 ft | 0 kts | 105° |
| 2026-05-07 18:02 | 51.51183 | 7.60343 | 451 ft | 11 kts | 261° |
| 2026-05-07 18:02 | 51.51158 | 7.60191 | 450 ft | 14 kts | 273° |
| 2026-05-07 18:02 | 51.51216 | 7.60214 | 447 ft | 15 kts | 59° |
| 2026-05-07 18:03 | 51.51274 | 7.60365 | 444 ft | 18 kts | 62° |
| 2026-05-07 18:03 | 51.51349 | 7.60583 | 439 ft | 24 kts | 64° |
| 2026-05-07 18:03 | 51.51436 | 7.60825 | 434 ft | 26 kts | 63° |
| 2026-05-07 18:03 | 51.51521 | 7.61051 | 428 ft | 19 kts | 38° |
| 2026-05-07 18:04 | 51.51566 | 7.60988 | 424 ft | 12 kts | 257° |
| 2026-05-07 18:04 | 51.51547 | 7.60859 | 426 ft | 12 kts | 257° |
| 2026-05-07 18:04 | 51.51526 | 7.60728 | 427 ft | 8 kts | 259° |
| 2026-05-07 18:04 | 51.51525 | 7.60722 | 427 ft | 0 kts | 261° |
| 2026-05-07 18:06 | 51.51525 | 7.60692 | 427 ft | 11 kts | 277° |
| 2026-05-07 18:06 | 51.51637 | 7.60634 | 416 ft | 26 kts | 56° |
| 2026-05-07 18:06 | 51.51683 | 7.60768 | 414 ft | 17 kts | 60° |
| 2026-05-07 18:06 | 51.51850 | 7.61256 | 420 ft | 71 kts | 61° |
| 2026-05-07 18:07 | 51.52101 | 7.61939 | 611 ft | 70 kts | 66° |
| 2026-05-07 18:07 | 51.52316 | 7.62629 | 804 ft | 70 kts | 65° |
| 2026-05-07 18:07 | 51.52535 | 7.63369 | 979 ft | 78 kts | 74° |
| 2026-05-07 18:07 | 51.52500 | 7.64218 | 1188 ft | 78 kts | 118° |
| 2026-05-07 18:08 | 51.52088 | 7.64779 | 1387 ft | 79 kts | 151° |
| 2026-05-07 18:08 | 51.51538 | 7.64948 | 1501 ft | 90 kts | 195° |
| 2026-05-07 18:08 | 51.51053 | 7.64234 | 1519 ft | 105 kts | 234° |
| 2026-05-07 18:08 | 51.50601 | 7.63244 | 1449 ft | 113 kts | 231° |
| 2026-05-07 18:09 | 51.50105 | 7.62278 | 1443 ft | 108 kts | 228° |
| 2026-05-07 18:09 | 51.49607 | 7.61380 | 1409 ft | 109 kts | 226° |
| 2026-05-07 18:09 | 51.49146 | 7.60563 | 1434 ft | 84 kts | 226° |
| 2026-05-07 18:09 | 51.48955 | 7.59800 | 1254 ft | 76 kts | 273° |
| 2026-05-07 18:10 | 51.48978 | 7.58997 | 1143 ft | 66 kts | 246° |
| 2026-05-07 18:10 | 51.48690 | 7.58534 | 1166 ft | 60 kts | 195° |
| 2026-05-07 18:10 | 51.48307 | 7.58692 | 1230 ft | 61 kts | 133° |
| 2026-05-07 18:10 | 51.48260 | 7.59360 | 1294 ft | 67 kts | 60° |
| 2026-05-07 18:11 | 51.48684 | 7.59539 | 1354 ft | 72 kts | 336° |
| 2026-05-07 18:11 | 51.49013 | 7.58901 | 1312 ft | 80 kts | 281° |
| 2026-05-07 18:11 | 51.48902 | 7.58050 | 1290 ft | 80 kts | 243° |
| 2026-05-07 18:11 | 51.48681 | 7.57251 | 1331 ft | 76 kts | 253° |
| 2026-05-07 18:12 | 51.48767 | 7.56421 | 1311 ft | 83 kts | 299° |
| 2026-05-07 18:12 | 51.49215 | 7.55838 | 1193 ft | 77 kts | 333° |
| 2026-05-07 18:12 | 51.49701 | 7.55580 | 1066 ft | 71 kts | 4° |
| 2026-05-07 18:12 | 51.50093 | 7.56041 | 1020 ft | 74 kts | 64° |
| 2026-05-07 18:13 | 51.50303 | 7.56847 | 924 ft | 83 kts | 69° |
| 2026-05-07 18:13 | 51.50584 | 7.57675 | 842 ft | 85 kts | 62° |
| 2026-05-07 18:13 | 51.50893 | 7.58491 | 799 ft | 86 kts | 61° |
| 2026-05-07 18:13 | 51.51180 | 7.59345 | 678 ft | 86 kts | 63° |
| 2026-05-07 18:14 | 51.51461 | 7.60137 | 523 ft | 74 kts | 63° |
| 2026-05-07 18:14 | 51.51681 | 7.60779 | 414 ft | 54 kts | 65° |
| 2026-05-07 18:14 | 51.51875 | 7.61351 | 409 ft | 74 kts | 61° |
| 2026-05-07 18:14 | 51.52135 | 7.62101 | 549 ft | 78 kts | 62° |
| 2026-05-07 18:15 | 51.52385 | 7.62877 | 725 ft | 76 kts | 65° |
| 2026-05-07 18:15 | 51.52721 | 7.63453 | 935 ft | 73 kts | 18° |
| 2026-05-07 18:15 | 51.53281 | 7.63552 | 1074 ft | 85 kts | 359° |
| 2026-05-07 18:15 | 51.53846 | 7.63522 | 1340 ft | 79 kts | 356° |
| 2026-05-07 18:16 | 51.54411 | 7.63496 | 1526 ft | 84 kts | 359° |
| 2026-05-07 18:16 | 51.55041 | 7.63466 | 1639 ft | 94 kts | 352° |
| 2026-05-07 18:16 | 51.55714 | 7.63318 | 1726 ft | 103 kts | 351° |
| 2026-05-07 18:16 | 51.56419 | 7.63128 | 1881 ft | 101 kts | 349° |
| 2026-05-07 18:17 | 51.57130 | 7.62944 | 1935 ft | 108 kts | 351° |
| 2026-05-07 18:17 | 51.57902 | 7.62734 | 1942 ft | 114 kts | 350° |
| 2026-05-07 18:17 | 51.58704 | 7.62510 | 1902 ft | 120 kts | 349° |
| 2026-05-07 18:17 | 51.59536 | 7.62279 | 1836 ft | 123 kts | 350° |
| 2026-05-07 18:18 | 51.60392 | 7.62049 | 1752 ft | 125 kts | 349° |
| 2026-05-07 18:18 | 51.61233 | 7.61641 | 1684 ft | 124 kts | 339° |
| 2026-05-07 18:18 | 51.61985 | 7.61154 | 1781 ft | 116 kts | 338° |
| 2026-05-07 18:18 | 51.62779 | 7.60753 | 1732 ft | 122 kts | 347° |
| 2026-05-07 18:19 | 51.63616 | 7.60411 | 1637 ft | 126 kts | 345° |
| 2026-05-07 18:19 | 51.64458 | 7.60097 | 1577 ft | 125 kts | 344° |
| 2026-05-07 18:19 | 51.65314 | 7.59815 | 1507 ft | 125 kts | 349° |
| 2026-05-07 18:19 | 51.66205 | 7.59500 | 1237 ft | 136 kts | 347° |
| 2026-05-07 18:20 | 51.67096 | 7.59295 | 1192 ft | 121 kts | 354° |
| 2026-05-07 18:20 | 51.67912 | 7.59093 | 1126 ft | 117 kts | 351° |
| 2026-05-07 18:20 | 51.68636 | 7.58861 | 1319 ft | 98 kts | 344° |
| 2026-05-07 18:20 | 51.69298 | 7.58471 | 1294 ft | 105 kts | 334° |
| 2026-05-07 18:21 | 51.69913 | 7.57968 | 1440 ft | 95 kts | 330° |
| 2026-05-07 18:21 | 51.70548 | 7.57466 | 1354 ft | 107 kts | 333° |
| 2026-05-07 18:21 | 51.71191 | 7.56857 | 1293 ft | 113 kts | 327° |
| 2026-05-07 18:21 | 51.71888 | 7.56254 | 1267 ft | 112 kts | 334° |
| 2026-05-07 18:22 | 51.72606 | 7.55724 | 1188 ft | 116 kts | 336° |
| 2026-05-07 18:22 | 51.73117 | 7.55443 | 1145 ft | 115 kts | 343° |
| 2026-05-07 18:22 | 51.74137 | 7.55190 | 1210 ft | 106 kts | 353° |
| 2026-05-07 18:22 | 51.74854 | 7.55054 | 1305 ft | 101 kts | 352° |
| 2026-05-07 18:23 | 51.75555 | 7.54887 | 1333 ft | 103 kts | 352° |
| 2026-05-07 18:23 | 51.76266 | 7.54692 | 1360 ft | 105 kts | 349° |
| 2026-05-07 18:23 | 51.76996 | 7.54456 | 1334 ft | 110 kts | 349° |
| 2026-05-07 18:23 | 51.77753 | 7.54206 | 1324 ft | 109 kts | 342° |
| 2026-05-07 18:24 | 51.78438 | 7.53852 | 1412 ft | 103 kts | 347° |
| 2026-05-07 18:24 | 51.79214 | 7.53622 | 1241 ft | 117 kts | 343° |
| 2026-05-07 18:24 | 51.79903 | 7.53214 | 1391 ft | 103 kts | 345° |
| 2026-05-07 18:24 | 51.80601 | 7.52825 | 1364 ft | 108 kts | 339° |
| 2026-05-07 18:25 | 51.81322 | 7.52459 | 1343 ft | 110 kts | 344° |
| 2026-05-07 18:25 | 51.82022 | 7.51974 | 1345 ft | 110 kts | 331° |
| 2026-05-07 18:25 | 51.82700 | 7.51354 | 1276 ft | 114 kts | 328° |
| 2026-05-07 18:25 | 51.83402 | 7.50740 | 1233 ft | 113 kts | 333° |
| 2026-05-07 18:26 | 51.84101 | 7.50196 | 1235 ft | 109 kts | 333° |
| 2026-05-07 18:26 | 51.84804 | 7.49864 | 1312 ft | 103 kts | 359° |
| 2026-05-07 18:26 | 51.85471 | 7.50162 | 1367 ft | 103 kts | 31° |
| 2026-05-07 18:26 | 51.85981 | 7.50951 | 1417 ft | 101 kts | 51° |
| 2026-05-07 18:27 | 51.86465 | 7.51766 | 1520 ft | 95 kts | 40° |
| 2026-05-07 18:27 | 51.86999 | 7.52393 | 1558 ft | 100 kts | 34° |
| 2026-05-07 18:27 | 51.87612 | 7.52994 | 1587 ft | 102 kts | 27° |
| 2026-05-07 18:27 | 51.88230 | 7.53532 | 1667 ft | 99 kts | 28° |
| 2026-05-07 18:28 | 51.88863 | 7.53971 | 1699 ft | 103 kts | 22° |
| 2026-05-07 18:28 | 51.89537 | 7.54258 | 1830 ft | 95 kts | 0° |
| 2026-05-07 18:28 | 51.90258 | 7.54251 | 1701 ft | 113 kts | 4° |
| 2026-05-07 18:28 | 51.91037 | 7.54479 | 1659 ft | 113 kts | 10° |
| 2026-05-07 18:29 | 51.91792 | 7.54650 | 1740 ft | 104 kts | 1° |
| 2026-05-07 18:29 | 51.92530 | 7.54620 | 1769 ft | 103 kts | 352° |
| 2026-05-07 18:29 | 51.93288 | 7.54593 | 1657 ft | 114 kts | 1° |
| 2026-05-07 18:29 | 51.94101 | 7.54647 | 1557 ft | 116 kts | 4° |
| 2026-05-07 18:30 | 51.94883 | 7.54864 | 1551 ft | 112 kts | 15° |
| 2026-05-07 18:30 | 51.95636 | 7.55195 | 1533 ft | 112 kts | 14° |
| 2026-05-07 18:30 | 51.96390 | 7.55481 | 1491 ft | 114 kts | 13° |
| 2026-05-07 18:30 | 51.97179 | 7.55797 | 1410 ft | 116 kts | 16° |
| 2026-05-07 18:31 | 51.97889 | 7.56297 | 1454 ft | 109 kts | 28° |
| 2026-05-07 18:31 | 51.98565 | 7.56838 | 1459 ft | 108 kts | 27° |
| 2026-05-07 18:31 | 51.99222 | 7.57446 | 1401 ft | 112 kts | 32° |
| 2026-05-07 18:31 | 51.99885 | 7.58198 | 1280 ft | 117 kts | 38° |
| 2026-05-07 18:32 | 52.00534 | 7.58863 | 1402 ft | 103 kts | 30° |
| 2026-05-07 18:32 | 52.01135 | 7.59425 | 1533 ft | 96 kts | 30° |
| 2026-05-07 18:32 | 52.01722 | 7.59922 | 1634 ft | 95 kts | 23° |
| 2026-05-07 18:32 | 52.02388 | 7.60201 | 1544 ft | 112 kts | 19° |
| 2026-05-07 18:33 | 52.03133 | 7.60768 | 1415 ft | 116 kts | 28° |
| 2026-05-07 18:33 | 52.03793 | 7.61254 | 1590 ft | 99 kts | 24° |
| 2026-05-07 18:33 | 52.04419 | 7.61699 | 1687 ft | 97 kts | 26° |
| 2026-05-07 18:33 | 52.05015 | 7.62172 | 1774 ft | 96 kts | 26° |
| 2026-05-07 18:34 | 52.05642 | 7.62678 | 1729 ft | 109 kts | 26° |
| 2026-05-07 18:34 | 52.06357 | 7.63255 | 1575 ft | 117 kts | 31° |
| 2026-05-07 18:34 | 52.07037 | 7.63945 | 1513 ft | 116 kts | 33° |
| 2026-05-07 18:34 | 52.07735 | 7.64644 | 1409 ft | 118 kts | 26° |
| 2026-05-07 18:35 | 52.08527 | 7.64954 | 1258 ft | 115 kts | 5° |
| 2026-05-07 18:35 | 52.09267 | 7.65010 | 1114 ft | 103 kts | 352° |
| 2026-05-07 18:35 | 52.09895 | 7.64756 | 1019 ft | 80 kts | 344° |
| 2026-05-07 18:35 | 52.10400 | 7.64570 | 967 ft | 71 kts | 347° |
| 2026-05-07 18:36 | 52.10899 | 7.64423 | 849 ft | 79 kts | 347° |
| 2026-05-07 18:36 | 52.11441 | 7.64375 | 752 ft | 79 kts | 357° |
| 2026-05-07 18:36 | 52.11974 | 7.64327 | 649 ft | 79 kts | 1° |
| 2026-05-07 18:36 | 52.12400 | 7.64545 | 608 ft | 69 kts | 36° |
| 2026-05-07 18:37 | 52.12721 | 7.65120 | 521 ft | 67 kts | 62° |
| 2026-05-07 18:37 | 52.12904 | 7.65819 | 421 ft | 69 kts | 73° |
| 2026-05-07 18:37 | 52.13059 | 7.66575 | 304 ft | 71 kts | 73° |
| 2026-05-07 18:37 | 52.13216 | 7.67285 | 184 ft | 67 kts | 73° |
| 2026-05-07 18:38 | 52.13323 | 7.67791 | 154 ft | 46 kts | 75° |
| 2026-05-07 18:38 | 52.13403 | 7.68146 | 154 ft | 22 kts | 82° |
| 2026-05-07 18:38 | 52.13315 | 7.68286 | 154 ft | 19 kts | 159° |
| 2026-05-07 18:38 | 52.13204 | 7.68326 | 154 ft | 16 kts | 196° |
| 2026-05-07 18:39 | 52.13172 | 7.68281 | 154 ft | 0 kts | 345° |
| 2026-05-07 18:39 | 52.13173 | 7.68281 | 154 ft | 0 kts | 349° |
| 2026-05-07 18:39 | 52.13175 | 7.68281 | 154 ft | 0 kts | 2° |
| 2026-05-07 18:39 | 52.13176 | 7.68281 | 154 ft | 0 kts | 7° |